Time;durP1;ratioP1;P1;durP2;ratioP2;P2;SDS_P1;SDS_P2;PMS_P1;PMS_P2;Temp;Humidity;BMP_temperature;BMP_pressure;BME280_temperature;BME280_humidity;BME280_pressure;Samples;Min_cycle;Max_cycle;Signal;HPM_P1;HPM_P2
2022/09/27 00:02:38;;;;;;;2.08;1.20;;;;;;;17.44;64.94;99316.19;4994885;28;20049;-84
2022/09/27 00:05:23;;;;;;;1.73;1.00;;;;;;;17.39;65.77;99313.03;4993055;28;20054;-85
2022/09/27 00:08:08;;;;;;;;;;;;;;;17.43;64.90;99309.09;5030149;23;20416;-83
2022/09/27 00:11:16;;;;;;;2.35;1.50;;;;;;;17.23;66.61;99315.41;5025255;28;19921;-82
2022/09/27 00:14:02;;;;;;;2.67;1.85;;;;;;;16.89;69.27;99313.06;5030302;28;20523;-83
2022/09/27 00:16:47;;;;;;;4.32;2.47;;;;;;;16.51;70.54;99311.81;5034977;28;20048;-82
2022/09/27 00:19:32;;;;;;;1.67;1.27;;;;;;;16.43;71.92;99314.94;5017959;28;20093;-83
2022/09/27 00:22:16;;;;;;;7.38;2.40;;;;;;;16.29;72.45;99315.69;5013299;28;20048;-83
2022/09/27 00:25:04;;;;;;;7.07;2.25;;;;;;;16.31;72.88;99315.28;5025895;28;20408;-82
2022/09/27 00:27:49;;;;;;;4.03;2.08;;;;;;;16.29;73.28;99321.19;5021712;28;20061;-82
2022/09/27 00:30:40;;;;;;;5.00;2.92;;;;;;;16.23;73.78;99304.31;5028247;28;20042;-82
2022/09/27 00:33:26;;;;;;;3.60;2.70;;;;;;;16.25;74.59;99314.91;5022133;28;20515;-82
2022/09/27 00:36:10;;;;;;;3.72;2.92;;;;;;;16.27;74.25;99315.28;5021455;28;20053;-82
2022/09/27 00:38:58;;;;;;;4.15;3.22;;;;;;;16.27;74.67;99316.06;5020804;28;20048;-83
2022/09/27 00:41:44;;;;;;;3.42;2.58;;;;;;;16.34;74.90;99307.09;5021829;28;20118;-82
2022/09/27 00:44:32;;;;;;;8.85;3.85;;;;;;;16.34;74.39;99312.56;5023293;28;20064;-82
2022/09/27 00:47:34;;;;;;;4.68;3.78;;;;;;;16.48;74.31;99295.34;5022558;28;20045;-83
2022/09/27 00:50:45;;;;;;;5.72;3.22;;;;;;;16.76;73.25;99291.91;5015292;28;20053;-83
2022/09/27 00:53:37;;;;;;;4.32;3.35;;;;;;;16.84;73.21;99286.00;5014203;28;20429;-82
2022/09/27 00:56:28;;;;;;;6.18;3.08;;;;;;;17.11;72.59;99283.66;4999175;28;20054;-82
2022/09/27 00:59:25;;;;;;;3.67;2.90;;;;;;;17.22;72.36;99272.66;5001804;28;20041;-82
2022/09/27 01:02:11;;;;;;;5.00;2.72;;;;;;;17.33;71.60;99267.91;5018701;28;20057;-81
2022/09/27 01:04:56;;;;;;;3.42;2.30;;;;;;;17.36;71.55;99267.13;5024523;28;20045;-82
2022/09/27 01:07:41;;;;;;;3.83;2.80;;;;;;;17.43;71.71;99267.09;5016712;28;20056;-82
2022/09/27 01:10:39;;;;;;;4.00;2.92;;;;;;;17.17;72.84;99259.31;5025607;28;20044;-82
2022/09/27 01:13:34;;;;;;;3.85;2.90;;;;;;;17.31;72.38;99251.84;5022175;28;20072;-82
2022/09/27 01:16:32;;;;;;;3.72;2.95;;;;;;;17.33;72.78;99243.19;5022697;28;20121;-81
2022/09/27 01:19:45;;;;;;;4.63;3.22;;;;;;;17.09;73.18;99236.56;5022991;28;20049;-82
2022/09/27 01:22:35;;;;;;;3.53;3.05;;;;;;;16.98;74.28;99247.56;5021575;28;20049;-82
2022/09/27 01:25:53;;;;;;;2.80;2.50;;;;;;;17.13;73.73;99250.28;5026075;28;20052;-82
2022/09/27 01:28:44;;;;;;;5.07;3.30;;;;;;;17.37;72.97;99257.72;5021555;28;20409;-82
2022/09/27 01:31:52;;;;;;;3.40;2.90;;;;;;;17.42;72.49;99255.31;5025374;28;20052;-82
2022/09/27 01:34:58;;;;;;;6.38;3.25;;;;;;;17.39;72.55;99241.59;5021852;28;20053;-83
2022/09/27 01:38:01;;;;;;;4.07;2.35;;;;;;;17.47;71.87;99227.44;5027034;28;20504;-83
2022/09/27 01:41:02;;;;;;;5.25;2.70;;;;;;;17.53;71.91;99236.06;5023000;28;20041;-83
2022/09/27 01:44:17;;;;;;;5.78;3.25;;;;;;;17.58;71.55;99227.41;5007849;28;20513;-83
2022/09/27 01:47:16;;;;;;;4.22;3.25;;;;;;;17.60;71.28;99216.03;5004209;28;20041;-83
2022/09/27 01:50:28;;;;;;;3.30;2.65;;;;;;;17.56;71.89;99218.78;5005859;28;20053;-83
2022/09/27 01:53:22;;;;;;;4.00;3.38;;;;;;;17.48;71.95;99209.75;5004202;28;20050;-82
2022/09/27 01:56:42;;;;;;;5.95;3.85;;;;;;;17.29;72.79;99201.97;5004198;28;20053;-82
2022/09/27 01:59:49;;;;;;;7.15;3.65;;;;;;;17.19;73.21;99202.78;5017624;28;20041;-82
2022/09/27 02:03:07;;;;;;;5.68;3.50;;;;;;;17.20;72.71;99203.56;5021894;28;20044;-81
2022/09/27 02:05:58;;;;;;;7.38;3.80;;;;;;;17.14;72.33;99203.19;5024389;28;20045;-82
2022/09/27 02:09:17;;;;;;;6.72;3.50;;;;;;;16.99;72.85;99202.44;5023770;28;20417;-82
2022/09/27 02:12:34;;;;;;;4.30;3.42;;;;;;;16.98;72.60;99200.88;5023101;28;20044;-82
2022/09/27 02:15:20;;;;;;;5.13;3.67;;;;;;;16.82;73.52;99197.75;5021520;28;20053;-82
2022/09/27 02:18:35;;;;;;;5.35;3.85;;;;;;;16.76;73.83;99191.09;5027898;28;20049;-83
2022/09/27 02:21:30;;;;;;;6.72;4.15;;;;;;;16.82;73.78;99194.22;5020410;28;20061;-82
2022/09/27 02:24:23;;;;;;;6.47;3.95;;;;;;;16.81;73.90;99193.44;5032029;28;20041;-82
2022/09/27 02:27:18;;;;;;;6.47;3.90;;;;;;;16.76;73.92;99188.34;5020414;28;20052;-82
2022/09/27 02:30:08;;;;;;;5.05;3.65;;;;;;;16.68;74.33;99189.53;5024752;28;20041;-82
2022/09/27 02:32:54;;;;;;;5.45;4.43;;;;;;;16.63;74.83;99187.97;5022377;28;20405;-83
2022/09/27 02:35:39;;;;;;;4.72;3.95;;;;;;;16.84;73.92;99183.63;5021378;28;20504;-83
2022/09/27 02:38:23;;;;;;;;;;;;;;;16.99;72.93;99165.97;5024409;28;20053;-82
2022/09/27 02:41:16;;;;;;;4.97;4.07;;;;;;;16.88;73.62;99176.97;5023626;28;20017;-83
2022/09/27 02:44:07;;;;;;;5.57;4.38;;;;;;;16.72;75.12;99178.53;5026607;28;20053;-83
2022/09/27 02:47:01;;;;;;;5.80;4.80;;;;;;;16.72;75.27;99179.31;5021224;28;20061;-83
2022/09/27 02:50:12;;;;;;;8.30;4.75;;;;;;;16.73;75.54;99169.91;5019010;28;20539;-83
2022/09/27 02:53:36;;;;;;;5.05;4.07;;;;;;;16.67;75.63;99172.28;5025084;28;20049;-82
2022/09/27 02:56:51;;;;;;;7.32;4.38;;;;;;;16.72;75.76;99178.53;5021231;28;20053;-82
2022/09/27 03:00:10;;;;;;;5.93;4.35;;;;;;;16.92;74.82;99183.22;5022202;28;20058;-82
2022/09/27 03:03:30;;;;;;;3.85;3.40;;;;;;;17.08;74.03;99197.31;5023508;28;20417;-81
2022/09/27 03:06:21;;;;;;;6.60;4.20;;;;;;;16.86;74.23;99203.25;5022000;28;20045;-82
2022/09/27 03:09:17;;;;;;;6.50;4.57;;;;;;;16.55;75.76;99204.81;5012288;28;20045;-82
2022/09/27 03:12:02;;;;;;;6.35;4.18;;;;;;;16.69;75.04;99196.59;5020205;28;20045;-82
2022/09/27 03:14:47;;;;;;;;;;;;;;;16.88;74.38;99193.44;5020017;28;20520;-82
2022/09/27 03:17:55;;;;;;;8.57;3.60;;;;;;;16.65;74.29;99191.13;5025106;28;20293;-82
2022/09/27 03:20:58;;;;;;;7.57;3.60;;;;;;;16.56;74.79;99182.44;5023671;28;20516;-84
2022/09/27 03:23:43;;;;;;;8.90;4.28;;;;;;;16.47;73.60;99170.28;5026603;28;20060;-83
2022/09/27 03:26:28;;;;;;;;;;;;;;;16.41;74.21;99174.59;5023061;28;20053;-83
2022/09/27 03:29:14;;;;;;;6.30;4.47;;;;;;;16.42;74.36;99165.19;5021670;28;20292;-83
2022/09/27 03:32:03;;;;;;;7.40;4.32;;;;;;;16.47;74.51;99156.56;5040697;28;20408;-83
2022/09/27 03:35:07;;;;;;;7.88;4.40;;;;;;;16.54;73.76;99159.31;5024589;28;20060;-83
2022/09/27 03:37:52;;;;;;;6.97;4.60;;;;;;;16.55;73.84;99160.91;5021904;28;20057;-83
2022/09/27 03:40:37;;;;;;;;;;;;;;;16.57;73.83;99169.50;5022227;28;20048;-84
2022/09/27 03:43:24;;;;;;;6.35;4.18;;;;;;;16.51;74.21;99165.56;5023944;28;20300;-83
2022/09/27 03:46:10;;;;;;;8.75;5.28;;;;;;;16.47;74.30;99151.09;5020071;28;20045;-81
2022/09/27 03:48:55;;;;;;;9.00;5.75;;;;;;;16.61;73.94;99165.59;5019945;28;20061;-82
2022/09/27 03:51:41;;;;;;;10.13;5.15;;;;;;;16.58;74.27;99151.88;5022285;28;20049;-83
2022/09/27 03:54:26;;;;;;;7.35;5.63;;;;;;;16.71;73.52;99152.28;5011063;28;20053;-83
2022/09/27 03:57:11;;;;;;;9.93;5.40;;;;;;;16.79;73.28;99151.09;5017699;28;20044;-81
2022/09/27 03:59:58;;;;;;;11.48;6.60;;;;;;;16.51;74.58;99138.94;5016928;28;20073;-82
2022/09/27 04:02:59;;;;;;;11.18;8.05;;;;;;;16.53;74.12;99131.09;5017258;28;20408;-82
2022/09/27 04:05:44;;;;;;;9.95;7.43;;;;;;;16.56;74.71;99132.25;5024853;28;20349;-82
2022/09/27 04:08:35;;;;;;;11.68;7.80;;;;;;;16.55;74.77;99133.44;5021140;28;20041;-82
2022/09/27 04:11:22;;;;;;;14.30;9.48;;;;;;;16.43;75.80;99151.09;5019891;28;20061;-82
2022/09/27 04:14:07;;;;;;;12.25;8.45;;;;;;;16.29;76.58;99161.28;5022202;28;20057;-83
2022/09/27 04:17:03;;;;;;;15.23;9.15;;;;;;;16.39;76.95;99160.50;5016868;28;20045;-82
2022/09/27 04:20:03;;;;;;;16.83;8.88;;;;;;;16.49;75.56;99135.03;5022087;28;20049;-83
2022/09/27 04:22:48;;;;;;;14.90;9.77;;;;;;;16.51;76.67;99116.97;5020143;28;20161;-82
2022/09/27 04:25:34;;;;;;;13.07;8.77;;;;;;;16.70;76.14;99121.31;5018267;28;20416;-83
2022/09/27 04:28:28;;;;;;;10.52;7.75;;;;;;;16.85;75.07;99122.84;4997501;28;20088;-83
2022/09/27 04:31:13;;;;;;;12.25;8.40;;;;;;;16.91;74.35;99113.03;4997586;28;20049;-83
2022/09/27 04:34:17;;;;;;;10.35;7.28;;;;;;;16.72;74.44;99113.44;4997859;28;20057;-82
2022/09/27 04:37:02;;;;;;;10.43;7.68;;;;;;;16.49;74.93;99107.56;5006543;28;20048;-82
2022/09/27 04:39:56;;;;;;;10.18;7.68;;;;;;;16.47;75.30;99118.94;5022181;28;20524;-82
2022/09/27 04:42:41;;;;;;;10.80;7.07;;;;;;;16.68;74.51;99112.66;5021370;28;20516;-82
2022/09/27 04:45:26;;;;;;;;;;;;;;;16.85;74.24;99094.59;5021520;28;20052;-82
2022/09/27 04:48:11;;;;;;;10.23;6.55;;;;;;;16.86;74.15;99096.97;5020541;28;19913;-82
2022/09/27 04:50:59;;;;;;;9.48;7.25;;;;;;;16.88;74.35;99104.78;5020381;28;20061;-82
2022/09/27 04:53:44;;;;;;;7.18;5.10;;;;;;;16.91;74.47;99115.00;5020781;28;20057;-82
2022/09/27 04:56:30;;;;;;;10.90;6.50;;;;;;;16.94;74.22;99114.19;5020495;28;20056;-83
2022/09/27 04:59:15;;;;;;;10.93;7.50;;;;;;;16.85;74.42;99124.81;5019363;28;20056;-82
2022/09/27 05:02:00;;;;;;;9.80;7.00;;;;;;;16.93;74.09;99121.63;5024320;28;20052;-85
2022/09/27 05:05:05;;;;;;;8.55;6.47;;;;;;;16.96;74.03;99126.34;5019914;28;20441;-82
2022/09/27 05:07:54;;;;;;;6.43;4.70;;;;;;;17.62;73.49;99121.00;5023779;28;20060;-86
2022/09/27 05:10:50;;;;;;;9.10;4.70;;;;;;;18.05;71.03;99145.47;5021610;28;20053;-84
2022/09/27 05:13:35;;;;;;;9.10;5.03;;;;;;;18.29;69.94;99128.00;5038839;28;20057;-86
2022/09/27 05:16:19;;;;;;;8.50;4.28;;;;;;;18.49;68.79;99129.00;5019187;28;20049;-86
2022/09/27 05:19:24;;;;;;;7.40;3.13;;;;;;;18.64;67.96;99132.47;5019333;28;20413;-85
2022/09/27 05:22:26;;;;;;;7.80;5.10;;;;;;;18.67;67.73;99131.63;5019534;28;20284;-85
2022/09/27 05:25:11;;;;;;;10.43;4.65;;;;;;;18.70;67.90;99123.34;5035920;28;20049;-85
2022/09/27 05:27:57;;;;;;;;;;;;;;;18.84;67.49;99129.91;5019536;28;20044;-83
2022/09/27 05:30:42;;;;;;;8.90;5.32;;;;;;;18.84;67.19;99127.16;4999359;28;19917;-86
2022/09/27 05:33:33;;;;;;;6.18;4.22;;;;;;;18.89;67.23;99137.72;5034492;28;20044;-85
2022/09/27 05:36:37;;;;;;;6.60;4.63;;;;;;;18.92;67.17;99123.91;5017599;28;20053;-84
2022/09/27 05:39:22;;;;;;;6.25;4.60;;;;;;;18.92;67.08;99123.91;5017128;28;20057;-84
2022/09/27 05:42:09;;;;;;;7.43;4.40;;;;;;;18.93;67.00;99121.94;5017105;28;20420;-84
2022/09/27 05:44:55;;;;;;;8.35;4.38;;;;;;;18.98;66.79;99124.25;5017247;28;20069;-84
2022/09/27 05:47:41;;;;;;;9.75;3.53;;;;;;;18.99;66.48;99125.81;5012536;28;20061;-84
2022/09/27 05:50:26;;;;;;;10.25;3.95;;;;;;;19.04;66.57;99125.34;5002917;28;20045;-84
2022/09/27 05:53:12;;;;;;;7.10;4.22;;;;;;;19.06;66.65;99131.22;5012593;28;20049;-82
2022/09/27 05:56:00;;;;;;;6.82;3.95;;;;;;;19.09;66.18;99133.97;5014308;28;20057;-82
2022/09/27 05:58:53;;;;;;;7.72;4.70;;;;;;;19.07;66.34;99133.56;5015967;28;20527;-82
2022/09/27 06:01:38;;;;;;;7.57;4.20;;;;;;;19.10;66.47;99141.00;5016374;28;20116;-83
2022/09/27 06:04:45;;;;;;;5.97;4.53;;;;;;;19.09;66.57;99124.91;5020820;28;20446;-82
2022/09/27 06:07:48;;;;;;;7.80;4.88;;;;;;;19.10;66.49;99115.44;5010084;28;20053;-82
2022/09/27 06:10:40;;;;;;;6.18;4.57;;;;;;;19.09;66.73;99122.94;5016106;28;20065;-82
2022/09/27 06:13:25;;;;;;;6.10;4.40;;;;;;;19.12;66.52;99119.34;5015738;28;20057;-83
2022/09/27 06:16:10;;;;;;;6.28;4.03;;;;;;;19.13;66.64;99122.88;5016771;28;20049;-82
2022/09/27 06:18:58;;;;;;;8.52;4.70;;;;;;;19.11;66.02;99126.03;5031141;23;20541;-79
2022/09/27 06:21:43;;;;;;;5.50;3.97;;;;;;;19.22;65.74;99156.25;5009014;28;20049;-79
2022/09/27 06:24:28;;;;;;;5.80;3.42;;;;;;;19.12;65.38;99157.94;5032756;28;20044;-78
2022/09/27 06:27:17;;;;;;;7.40;5.43;;;;;;;19.13;66.19;99164.22;5012793;28;20313;-78
2022/09/27 06:30:18;;;;;;;8.73;5.68;;;;;;;18.70;66.87;99155.59;4990594;28;20053;-76
2022/09/27 06:33:05;;;;;;;12.57;6.43;;;;;;;18.29;67.99;99155.50;4993706;28;20053;-76
2022/09/27 06:35:55;;;;;;;12.98;5.22;;;;;;;18.04;68.76;99141.16;5009813;28;20045;-78
2022/09/27 06:38:41;;;;;;;6.28;4.72;;;;;;;17.96;69.58;99126.69;4998130;28;20461;-79
2022/09/27 06:41:33;;;;;;;6.75;5.00;;;;;;;18.14;68.72;99121.03;4995889;28;20053;-80
2022/09/27 06:44:29;;;;;;;7.43;4.57;;;;;;;17.83;70.22;99115.34;4994645;28;20516;-77
2022/09/27 06:47:37;;;;;;;5.65;4.20;;;;;;;18.28;68.91;99112.69;4998595;28;20061;-77
2022/09/27 06:50:44;;;;;;;5.88;4.57;;;;;;;18.26;68.33;99104.06;4994274;28;20536;-76
2022/09/27 06:53:29;;;;;;;9.25;4.82;;;;;;;18.25;68.82;99102.47;5011644;28;20049;-77
2022/09/27 06:56:14;;;;;;;8.25;4.30;;;;;;;18.37;69.37;99096.50;4990217;28;20512;-78
2022/09/27 07:02:09;;;;;;;6.72;4.47;;;;;;;18.19;69.24;99095.84;4995061;28;20426;-81
2022/09/27 07:05:09;;;;;;;6.68;4.15;;;;;;;18.17;69.94;99096.28;5006145;28;20410;-80
2022/09/27 07:08:03;;;;;;;;;;;;;;;18.15;70.57;99103.34;4993150;28;20053;-80
2022/09/27 07:10:50;;;;;;;16.13;5.15;;;;;;;18.17;71.13;99101.78;4997947;28;19914;-81
2022/09/27 07:13:39;;;;;;;5.90;3.60;;;;;;;18.21;69.49;99096.22;4987688;28;20045;-81
2022/09/27 07:16:24;;;;;;;4.57;3.35;;;;;;;18.32;68.58;99108.72;4991678;28;20046;-81
2022/09/27 07:19:10;;;;;;;5.15;3.30;;;;;;;18.44;68.28;99104.66;4997198;28;20049;-80
2022/09/27 07:21:55;;;;;;;4.53;2.90;;;;;;;18.49;67.14;99111.72;5003208;28;20061;-81
2022/09/27 07:24:41;;;;;;;50.92;8.25;;;;;;;18.53;64.79;99117.97;4996855;28;20528;-84
2022/09/27 07:27:26;;;;;;;;;;;;;;;18.60;66.89;99115.16;5011209;28;20058;-81
2022/09/27 07:30:12;;;;;;;59.58;11.75;;;;;;;18.71;65.88;99118.59;5009786;28;19921;-81
2022/09/27 07:33:02;;;;;;;59.55;12.60;;;;;;;18.79;66.47;99114.59;4974114;28;20047;-83
2022/09/27 07:35:46;;;;;;;27.85;6.82;;;;;;;18.92;65.37;99112.09;5000775;28;20054;-84
2022/09/27 07:38:31;;;;;;;13.73;3.58;;;;;;;18.99;65.39;99117.53;4992456;28;20061;-83
2022/09/27 07:41:16;;;;;;;21.70;4.80;;;;;;;19.08;65.02;99115.06;5009786;28;20049;-81
2022/09/27 07:44:02;;;;;;;17.95;2.60;;;;;;;19.16;63.92;99116.53;4990403;28;20061;-82
2022/09/27 07:46:49;;;;;;;10.43;2.35;;;;;;;19.14;63.30;99127.22;5000746;28;20053;-80
2022/09/27 07:49:41;;;;;;;8.93;1.80;;;;;;;19.21;63.17;99127.91;4989754;28;20035;-83
2022/09/27 07:52:47;;;;;;;1.98;1.60;;;;;;;19.17;61.91;99123.63;4986677;28;20420;-82
2022/09/27 07:55:54;;;;;;;8.10;1.20;;;;;;;19.29;62.65;99131.38;4990242;28;20607;-82
2022/09/27 07:58:42;;;;;;;3.30;1.30;;;;;;;19.33;62.27;99125.78;5000433;28;20058;-81
2022/09/27 08:01:27;;;;;;;3.25;1.08;;;;;;;19.33;61.48;99128.56;5002755;28;20097;-81
2022/09/27 08:04:12;;;;;;;1.73;0.40;;;;;;;19.27;60.06;99132.94;4991584;28;20061;-81
2022/09/27 08:06:57;;;;;;;1.40;0.90;;;;;;;19.29;60.60;99136.88;4976138;28;20422;-82
2022/09/27 08:09:42;;;;;;;2.95;0.80;;;;;;;19.34;59.97;99144.69;4992336;28;20053;-80
2022/09/27 08:12:27;;;;;;;;;;;;;;;19.29;59.03;99144.34;4997067;28;20509;-82
2022/09/27 08:15:12;;;;;;;1.45;0.60;;;;;;;19.09;58.30;99133.19;4995545;28;19913;-83
2022/09/27 08:17:57;;;;;;;2.80;0.80;;;;;;;19.12;58.78;99141.41;4993086;28;20049;-80
2022/09/27 08:21:05;;;;;;;4.22;0.40;;;;;;;19.04;59.11;99139.13;4997421;28;20081;-80
2022/09/27 08:24:00;;;;;;;6.57;1.55;;;;;;;19.15;61.57;99142.53;5008194;28;20045;-80
2022/09/27 08:27:09;;;;;;;1.48;1.08;;;;;;;19.28;58.58;99135.31;5010772;28;20057;-85
2022/09/27 08:30:10;;;;;;;1.05;0.73;;;;;;;19.13;59.84;99140.22;4992040;28;20146;-82
2022/09/27 08:32:57;;;;;;;0.40;0.40;;;;;;;19.29;61.09;99138.84;4992827;28;20061;-83
2022/09/27 08:35:42;;;;;;;2.13;0.73;;;;;;;19.38;59.50;99131.63;4996012;28;20046;-83
2022/09/27 08:38:27;;;;;;;4.43;0.98;;;;;;;19.43;58.09;99131.19;4993767;28;20049;-81
2022/09/27 08:41:37;;;;;;;4.30;1.25;;;;;;;19.39;59.52;99140.69;4992418;28;20069;-80
2022/09/27 08:44:44;;;;;;;3.88;2.03;;;;;;;19.38;59.86;99139.91;5005381;28;20053;-82
2022/09/27 08:47:40;;;;;;;1.65;1.52;;;;;;;19.36;58.72;99131.25;5012386;28;20053;-84
2022/09/27 08:50:37;;;;;;;2.75;1.98;;;;;;;19.44;58.55;99135.53;5009914;28;20042;-84
2022/09/27 08:53:32;;;;;;;2.85;2.25;;;;;;;19.39;58.20;99135.19;4994124;28;20069;-81
2022/09/27 08:56:20;;;;;;;2.35;1.35;;;;;;;19.34;59.63;99136.41;5005969;28;20049;-81
2022/09/27 08:59:20;;;;;;;3.67;1.13;;;;;;;19.50;60.03;99138.63;4991723;28;20552;-86
2022/09/27 09:02:15;;;;;;;1.35;0.80;;;;;;;19.54;59.76;99131.06;4992541;28;20058;-83
2022/09/27 09:05:23;;;;;;;5.32;1.30;;;;;;;19.61;59.73;99130.97;4996491;28;20521;-82
2022/09/27 09:08:27;;;;;;;2.30;1.25;;;;;;;19.61;59.94;99131.75;4993479;28;20061;-81
2022/09/27 09:14:53;;;;;;;6.05;2.45;;;;;;;19.66;59.11;99135.25;4992875;28;20061;-83
2022/09/27 09:17:46;;;;;;;3.55;1.20;;;;;;;19.74;59.14;99137.50;4996109;28;20061;-82
2022/09/27 09:21:02;;;;;;;5.68;3.22;;;;;;;19.74;58.48;99133.97;4992396;28;20049;-82
2022/09/27 09:23:59;;;;;;;5.93;3.47;;;;;;;19.64;58.85;99119.91;4996929;28;20045;-82
2022/09/27 09:27:10;;;;;;;5.63;3.53;;;;;;;19.78;58.71;99126.41;4996900;28;20049;-80
2022/09/27 09:30:17;;;;;;;3.22;1.90;;;;;;;19.83;58.97;99109.38;5001153;28;20041;-81
2022/09/27 09:33:12;;;;;;;2.03;1.33;;;;;;;19.91;58.88;99117.13;5009771;28;20049;-83
2022/09/27 09:36:24;;;;;;;2.42;1.92;;;;;;;19.92;58.97;99106.88;4992390;28;20037;-82
2022/09/27 09:39:09;;;;;;;4.50;2.50;;;;;;;19.94;60.13;99118.28;4998356;28;20524;-84
2022/09/27 09:42:15;;;;;;;4.85;1.83;;;;;;;19.95;59.63;99115.13;4995730;28;20053;-82
2022/09/27 09:45:14;;;;;;;4.50;1.77;;;;;;;20.02;59.14;99109.47;4991357;28;20051;-88
2022/09/27 09:48:05;;;;;;;4.85;3.22;;;;;;;20.01;59.52;99110.69;5006575;28;20046;-87
2022/09/27 09:50:55;;;;;;;6.55;4.50;;;;;;;19.99;59.15;99107.56;5013584;28;20053;-81
2022/09/27 09:53:56;;;;;;;9.05;3.55;;;;;;;20.01;60.95;99104.41;5011618;28;20046;-80
2022/09/27 09:57:12;;;;;;;241.43;43.20;;;;;;;20.11;60.91;99103.47;5007452;28;20073;-82
2022/09/27 10:00:01;;;;;;;240.85;48.45;;;;;;;20.15;61.63;99106.94;4990769;28;20047;-81
2022/09/27 10:02:52;;;;;;;26.40;7.93;;;;;;;20.20;59.28;99097.38;4989638;28;20042;-83
2022/09/27 10:05:43;;;;;;;55.88;12.90;;;;;;;20.15;59.23;99097.88;4992772;28;20045;-80
2022/09/27 10:08:28;;;;;;;41.40;10.27;;;;;;;20.03;60.29;99088.97;5008573;28;20065;-82
2022/09/27 10:11:39;;;;;;;58.05;12.60;;;;;;;20.08;60.72;99074.69;4994345;28;20038;-83
2022/09/27 10:14:37;;;;;;;47.28;12.18;;;;;;;20.17;60.58;99090.72;5004252;28;20058;-80
2022/09/27 10:17:27;;;;;;;25.35;9.07;;;;;;;20.22;60.59;99087.47;4989652;28;20034;-82
2022/09/27 10:20:34;;;;;;;34.85;7.55;;;;;;;20.26;60.30;99084.69;4995064;28;20053;-81
2022/09/27 10:23:23;;;;;;;12.73;5.50;;;;;;;20.08;60.11;99084.94;4993436;28;20041;-80
2022/09/27 10:26:29;;;;;;;9.52;3.97;;;;;;;20.09;60.40;99083.75;4991471;28;20061;-81
2022/09/27 10:29:15;;;;;;;8.68;3.70;;;;;;;20.19;60.26;99074.53;5007261;28;20528;-82
2022/09/27 10:32:03;;;;;;;12.00;5.30;;;;;;;20.27;59.96;99086.22;4985392;28;20049;-80
2022/09/27 10:35:20;;;;;;;8.82;3.45;;;;;;;20.29;60.38;99086.59;4991499;28;20409;-83
2022/09/27 10:38:20;;;;;;;8.50;3.67;;;;;;;20.24;59.92;99079.56;5005047;28;20049;-84
2022/09/27 10:41:35;;;;;;;8.18;5.88;;;;;;;20.07;58.04;99086.94;5007881;28;20130;-81
2022/09/27 10:44:31;;;;;;;7.28;3.65;;;;;;;20.25;59.57;99080.34;4992063;28;20065;-81
2022/09/27 10:47:35;;;;;;;7.82;3.15;;;;;;;20.29;59.67;99072.78;4987356;28;20050;-81
2022/09/27 10:51:04;;;;;;;5.40;3.47;;;;;;;20.31;59.54;99075.94;4991771;28;20045;-81
2022/09/27 10:54:00;;;;;;;6.65;5.10;;;;;;;20.29;58.41;99076.31;5003364;28;20422;-81
2022/09/27 10:57:13;;;;;;;4.38;3.88;;;;;;;20.31;59.17;99067.66;5003374;28;20049;-81
2022/09/27 11:00:18;;;;;;;7.72;4.70;;;;;;;20.38;57.89;99062.78;4990166;28;20061;-80
2022/09/27 11:03:13;;;;;;;4.53;3.03;;;;;;;20.42;58.30;99057.97;5006942;28;20053;-82
2022/09/27 11:05:58;;;;;;;5.13;2.90;;;;;;;20.46;58.30;99053.19;4993799;28;20050;-84
2022/09/27 11:08:44;;;;;;;4.40;3.33;;;;;;;20.55;58.10;99054.59;5004733;28;20038;-83
2022/09/27 11:11:34;;;;;;;8.18;3.55;;;;;;;20.61;57.69;99064.75;4993987;28;20049;-82
2022/09/27 11:14:22;;;;;;;11.23;5.57;;;;;;;20.69;57.39;99057.09;5008061;28;20061;-81
2022/09/27 11:17:38;;;;;;;9.10;3.90;;;;;;;20.64;56.81;99052.84;4993397;28;20054;-79
2022/09/27 11:20:32;;;;;;;8.20;4.45;;;;;;;20.72;56.41;99059.81;4989661;28;20046;-81
2022/09/27 11:23:42;;;;;;;6.75;4.10;;;;;;;20.74;56.03;99045.56;5008623;28;20409;-80
2022/09/27 11:27:04;;;;;;;4.97;3.70;;;;;;;20.82;55.69;99058.03;4989458;28;20592;-80
2022/09/27 11:30:04;;;;;;;7.20;3.22;;;;;;;20.86;55.34;99047.69;4991091;28;20053;-80
2022/09/27 11:33:57;;;;;;;4.80;3.78;;;;;;;21.01;55.18;99043.44;4994048;28;20041;-79
2022/09/27 11:37:24;;;;;;;6.00;3.80;;;;;;;21.15;54.61;99047.91;5002728;28;20054;-80
2022/09/27 11:40:36;;;;;;;8.27;3.38;;;;;;;21.21;54.81;99044.22;4985733;28;20053;-81
2022/09/27 11:43:30;;;;;;;5.38;4.20;;;;;;;21.11;54.43;99031.38;4992531;28;20045;-81
2022/09/27 11:46:22;;;;;;;;;;;;;;;21.12;54.95;99044.00;5002682;28;20041;-81
2022/09/27 11:49:34;;;;;;;6.70;2.80;;;;;;;21.01;55.29;99032.38;5004886;28;19913;-80
2022/09/27 11:53:02;;;;;;;5.18;3.08;;;;;;;21.11;54.42;99047.97;4991962;28;20513;-80
2022/09/27 11:56:02;;;;;;;3.72;2.70;;;;;;;21.27;54.14;99055.56;4992937;28;20073;-79
2022/09/27 11:59:19;;;;;;;3.65;3.13;;;;;;;21.28;53.61;99049.59;5008057;28;20049;-79
2022/09/27 12:02:29;;;;;;;9.23;3.75;;;;;;;21.23;53.90;99041.81;4996969;28;20058;-81
2022/09/27 12:05:29;;;;;;;8.02;4.90;;;;;;;21.14;54.05;99044.38;4989163;28;20049;-80
2022/09/27 12:08:46;;;;;;;7.68;4.47;;;;;;;21.23;53.85;99046.56;4992322;28;20520;-81
2022/09/27 12:11:53;;;;;;;7.53;3.80;;;;;;;21.28;53.18;99035.75;4991158;28;20041;-81
2022/09/27 12:14:47;;;;;;;6.05;4.20;;;;;;;21.29;53.13;99039.31;4991661;28;20062;-82
2022/09/27 12:17:37;;;;;;;7.75;3.55;;;;;;;21.32;52.76;99036.50;4992748;28;20042;-81
2022/09/27 12:20:33;;;;;;;5.80;3.80;;;;;;;21.40;51.79;99028.81;5039319;23;20049;-85
2022/09/27 12:23:28;;;;;;;8.50;5.53;;;;;;;21.46;51.87;99029.06;5009766;28;20044;-88
2022/09/27 12:26:27;;;;;;;8.27;4.05;;;;;;;21.51;51.21;99031.34;5008826;28;20045;-85
2022/09/27 12:29:26;;;;;;;8.85;4.85;;;;;;;21.56;51.38;99019.75;5002258;28;20053;-84
2022/09/27 12:32:21;;;;;;;6.07;3.90;;;;;;;21.54;51.37;99019.41;5000839;28;20057;-82
2022/09/27 12:35:32;;;;;;;;;;;;;;;21.66;52.02;99016.75;4999542;28;20054;-85
2022/09/27 12:38:36;;;;;;;6.10;3.45;;;;;;;21.67;51.24;99023.06;5001239;28;19918;-85
2022/09/27 12:41:24;;;;;;;4.07;2.90;;;;;;;21.75;51.71;99018.91;5011489;28;20405;-85
2022/09/27 12:44:31;;;;;;;20.80;3.58;;;;;;;21.57;51.58;99015.78;5019838;28;20050;-85
2022/09/27 12:47:31;;;;;;;6.43;3.80;;;;;;;21.77;51.76;99019.25;5018840;28;20045;-85
2022/09/27 12:50:31;;;;;;;7.43;4.47;;;;;;;21.86;50.81;99019.44;5016568;28;20045;-84
2022/09/27 12:53:28;;;;;;;6.28;5.25;;;;;;;21.86;49.55;99024.97;5000250;28;20049;-85
2022/09/27 12:56:24;;;;;;;8.07;4.68;;;;;;;21.91;50.63;99027.22;5002944;28;20049;-85
2022/09/27 12:59:51;;;;;;;4.90;3.30;;;;;;;21.68;51.17;99022.63;5001102;28;20049;-85
2022/09/27 13:02:58;;;;;;;9.65;5.15;;;;;;;21.65;50.87;99020.72;5023390;28;20056;-85
2022/09/27 13:06:10;;;;;;;11.60;7.10;;;;;;;21.70;51.16;99022.97;5010385;28;20528;-85
2022/09/27 13:09:24;;;;;;;9.52;4.43;;;;;;;21.62;51.57;99020.81;5017628;28;20049;-86
2022/09/27 13:12:13;;;;;;;5.47;2.90;;;;;;;21.59;51.99;99010.56;5019357;28;20424;-86
2022/09/27 13:15:12;;;;;;;10.63;6.30;;;;;;;21.82;51.01;99015.97;5020625;28;20049;-85
2022/09/27 13:18:00;;;;;;;5.90;3.45;;;;;;;21.65;51.74;99006.88;5018591;28;20053;-85
2022/09/27 13:20:55;;;;;;;6.93;4.00;;;;;;;21.61;51.86;99005.41;5019196;28;20409;-86
2022/09/27 13:23:52;;;;;;;9.30;4.43;;;;;;;21.58;52.00;99003.50;5017300;28;20061;-85
2022/09/27 13:26:45;;;;;;;5.32;3.45;;;;;;;21.77;51.13;99008.97;5021135;28;20056;-86
2022/09/27 13:29:32;;;;;;;10.20;4.07;;;;;;;21.67;51.33;99012.78;5018584;28;20045;-83
2022/09/27 13:32:27;;;;;;;7.80;3.78;;;;;;;21.62;51.71;99004.22;5019263;28;20044;-85
2022/09/27 13:35:24;;;;;;;4.47;3.15;;;;;;;21.85;51.68;99014.31;5015337;28;20045;-85
2022/09/27 13:38:23;;;;;;;10.82;3.80;;;;;;;21.71;50.16;99012.69;5018032;28;20049;-84
2022/09/27 13:41:18;;;;;;;10.77;5.13;;;;;;;21.86;51.22;99008.34;5018617;28;20052;-84
2022/09/27 13:45:00;;;;;;;5.32;3.17;;;;;;;21.69;51.73;99004.00;5021982;28;20053;-84
2022/09/27 13:47:49;;;;;;;5.53;3.72;;;;;;;21.53;51.75;99010.34;5018172;28;20052;-84
2022/09/27 13:50:54;;;;;;;7.07;5.18;;;;;;;21.66;51.05;99021.50;5023103;28;20037;-84
2022/09/27 13:53:40;;;;;;;6.75;4.10;;;;;;;21.72;50.88;99025.31;5015115;28;20044;-83
2022/09/27 13:56:49;;;;;;;7.43;4.80;;;;;;;21.72;50.85;99026.09;5019917;28;20052;-85